createdAt,value
2022-09-26T00:00:37.277Z,99864.69
2022-09-26T00:04:58.961Z,99861.00
2022-09-26T00:09:00.835Z,99858.31
2022-09-26T00:13:02.558Z,99844.75
2022-09-26T00:17:04.565Z,99836.22
2022-09-26T00:21:09.109Z,99833.78
2022-09-26T00:25:11.028Z,99836.38
2022-09-26T00:29:14.335Z,99835.63
2022-09-26T00:33:17.036Z,99830.91
2022-09-26T00:37:18.687Z,99831.50
2022-09-26T00:41:22.407Z,99836.47
2022-09-26T00:45:30.054Z,99830.19
2022-09-26T00:49:38.537Z,99837.84
2022-09-26T00:53:45.932Z,99847.88
2022-09-26T00:57:53.812Z,99855.38
2022-09-26T01:01:58.703Z,99855.97
2022-09-26T01:06:01.428Z,99855.78
2022-09-26T01:10:06.040Z,99857.50
2022-09-26T01:14:12.321Z,99854.81
2022-09-26T01:18:14.261Z,99850.41
2022-09-26T01:23:03.029Z,99848.72
2022-09-26T01:27:39.920Z,99842.91
2022-09-26T01:32:26.472Z,99847.31
2022-09-26T01:37:17.298Z,99839.38
2022-09-26T01:41:48.354Z,99844.94
2022-09-26T01:45:59.042Z,99832.28
2022-09-26T01:50:16.364Z,99832.72
2022-09-26T01:54:24.036Z,99837.78
2022-09-26T01:58:35.979Z,99839.78
2022-09-26T02:02:42.348Z,99846.53
2022-09-26T02:06:52.888Z,99846.53
2022-09-26T02:11:17.197Z,99844.75
2022-09-26T02:15:21.257Z,99853.53
2022-09-26T02:19:29.296Z,99844.50
2022-09-26T02:23:31.305Z,99846.88
2022-09-26T02:27:33.204Z,99852.41
2022-09-26T02:31:42.971Z,99851.84
2022-09-26T02:35:57.439Z,99854.44
2022-09-26T02:40:02.611Z,99849.22
2022-09-26T02:44:32.164Z,99845.25
2022-09-26T02:48:52.982Z,99842.47
2022-09-26T02:53:06.945Z,99838.53
2022-09-26T02:57:45.752Z,99839.94
2022-09-26T03:02:21.662Z,99836.34
2022-09-26T03:06:46.602Z,99839.97
2022-09-26T03:10:50.115Z,99835.66
2022-09-26T03:14:58.460Z,99836.31
2022-09-26T03:19:09.491Z,99836.53
2022-09-26T03:23:11.907Z,99830.84
2022-09-26T03:27:14.769Z,99833.03
2022-09-26T03:31:17.104Z,99825.47
2022-09-26T03:35:26.368Z,99817.63
2022-09-26T03:39:28.267Z,99816.03
2022-09-26T03:43:43.664Z,99806.19
2022-09-26T03:47:45.727Z,99806.94
2022-09-26T03:51:48.006Z,99804.25
2022-09-26T03:55:50.239Z,99804.75
2022-09-26T03:59:51.997Z,99805.53
2022-09-26T04:03:56.245Z,99808.63
2022-09-26T04:07:59.925Z,99804.25
2022-09-26T04:12:01.878Z,99801.22
2022-09-26T04:16:05.881Z,99809.38
2022-09-26T04:20:09.679Z,99800.97
2022-09-26T04:24:16.653Z,99797.84
2022-09-26T04:28:18.799Z,99802.06
2022-09-26T04:32:20.631Z,99800.13
2022-09-26T04:36:59.337Z,99805.53
2022-09-26T04:41:05.664Z,99798.53
2022-09-26T04:45:08.401Z,99806.09
2022-09-26T04:49:10.303Z,99799.88
2022-09-26T04:53:12.271Z,99805.34
2022-09-26T04:57:20.956Z,99795.06
2022-09-26T05:01:23.249Z,99788.16
2022-09-26T05:05:36.816Z,99794.88
2022-09-26T05:09:40.017Z,99788.66
2022-09-26T05:13:53.066Z,99786.53
2022-09-26T05:17:59.921Z,99789.69
2022-09-26T05:22:04.606Z,99786.28
2022-09-26T05:26:20.044Z,99790.03
2022-09-26T05:30:21.849Z,99790.59
2022-09-26T05:34:26.066Z,99781.59
2022-09-26T05:38:28.507Z,99782.81
2022-09-26T05:42:30.814Z,99776.69
2022-09-26T05:46:34.809Z,99774.66
2022-09-26T05:50:44.098Z,99775.72
2022-09-26T05:54:45.898Z,99763.94
2022-09-26T05:59:06.485Z,99775.28
2022-09-26T06:03:27.874Z,99764.94
2022-09-26T06:07:43.077Z,99765.19
2022-09-26T06:11:49.883Z,99761.25
2022-09-26T06:15:52.639Z,99761.63
2022-09-26T06:19:55.030Z,99763.41
2022-09-26T06:23:57.052Z,99768.94
2022-09-26T06:28:00.845Z,99767.06
2022-09-26T06:32:04.965Z,99770.19
2022-09-26T06:36:27.521Z,99769.81
2022-09-26T06:40:29.733Z,99765.53
2022-09-26T06:44:31.759Z,99775.72
2022-09-26T06:48:50.820Z,99773.56
2022-09-26T06:53:11.464Z,99777.78
2022-09-26T06:57:15.325Z,99776.53
2022-09-26T07:01:18.559Z,99766.94
2022-09-26T07:05:31.176Z,99768.34
2022-09-26T07:09:33.736Z,99769.41
2022-09-26T07:13:47.723Z,99773.28
2022-09-26T07:17:49.488Z,99772.38
2022-09-26T07:22:06.692Z,99758.47
2022-09-26T07:26:15.940Z,99762.34
2022-09-26T07:30:19.413Z,99765.66
2022-09-26T07:34:32.147Z,99761.06
2022-09-26T07:38:34.164Z,99767.59
2022-09-26T07:42:37.904Z,99769.38
2022-09-26T07:46:58.743Z,99762.81
2022-09-26T07:51:03.568Z,99757.88
2022-09-26T07:55:24.590Z,99765.63
2022-09-26T07:59:44.120Z,99766.81
2022-09-26T08:04:06.362Z,99757.25
2022-09-26T08:08:11.838Z,99759.44
2022-09-26T08:12:51.970Z,99754.28
2022-09-26T08:17:14.400Z,99749.78
2022-09-26T08:21:16.732Z,99746.00
2022-09-26T08:25:18.641Z,99749.94
2022-09-26T08:29:27.599Z,99746.59
2022-09-26T08:33:35.343Z,99749.63
2022-09-26T08:37:37.316Z,99742.28
2022-09-26T08:42:15.454Z,99744.97
2022-09-26T08:46:55.086Z,99740.16
2022-09-26T08:51:30.081Z,99719.53
2022-09-26T08:55:39.957Z,99708.06
2022-09-26T08:59:44.013Z,99691.59
2022-09-26T09:04:18.346Z,99680.53
2022-09-26T09:08:25.264Z,99669.28
2022-09-26T09:13:05.376Z,99659.66
2022-09-26T09:17:48.235Z,99644.16
2022-09-26T09:22:30.592Z,99613.22
2022-09-26T09:31:43.027Z,99599.03
2022-09-26T09:36:18.733Z,99586.09
2022-09-26T09:40:58.095Z,99578.22
2022-09-26T09:45:09.450Z,99574.34
2022-09-26T09:49:23.449Z,99586.75
2022-09-26T09:53:28.152Z,99602.31
2022-09-26T09:57:57.826Z,99603.00
2022-09-26T10:02:13.376Z,99608.34
2022-09-26T10:06:44.164Z,99618.41
2022-09-26T10:10:59.011Z,99620.91
2022-09-26T10:15:24.168Z,99626.94
2022-09-26T10:19:45.196Z,99633.81
2022-09-26T10:23:50.594Z,99660.38
2022-09-26T10:28:24.766Z,99664.00
2022-09-26T10:32:30.465Z,99664.56
2022-09-26T10:36:52.947Z,99677.59
2022-09-26T10:41:01.365Z,99667.00
2022-09-26T10:45:15.921Z,99684.53
2022-09-26T10:49:48.414Z,99675.00
2022-09-26T10:54:43.950Z,99691.94
2022-09-26T10:58:47.140Z,99684.53
2022-09-26T11:02:52.302Z,99704.69
2022-09-26T11:06:54.442Z,99690.28
2022-09-26T11:11:12.643Z,99692.63
2022-09-26T11:15:16.219Z,99688.59
2022-09-26T11:19:28.153Z,99693.91
2022-09-26T11:23:50.843Z,99678.94
2022-09-26T11:28:14.974Z,99676.75
2022-09-26T11:32:47.345Z,99667.22
2022-09-26T11:37:45.321Z,99661.72
2022-09-26T11:42:13.765Z,99658.22
2022-09-26T11:46:47.540Z,99668.31
2022-09-26T11:51:19.927Z,99663.81
2022-09-26T11:55:45.220Z,99666.84
2022-09-26T12:00:02.157Z,99662.63
2022-09-26T12:04:21.624Z,99658.00
2022-09-26T12:08:38.885Z,99665.66
2022-09-26T12:13:13.674Z,99655.88
2022-09-26T12:17:53.686Z,99647.72
2022-09-26T12:22:42.066Z,99644.44
2022-09-26T12:26:55.163Z,99644.09
2022-09-26T12:31:00.503Z,99635.25
2022-09-26T12:35:28.028Z,99629.13
2022-09-26T12:39:49.515Z,99633.28
2022-09-26T12:44:15.837Z,99633.97
2022-09-26T12:48:29.699Z,99620.16
2022-09-26T12:52:55.322Z,99611.78
2022-09-26T12:57:09.356Z,99611.94
2022-09-26T13:01:46.760Z,99609.78
2022-09-26T13:06:11.594Z,99608.13
2022-09-26T13:10:28.763Z,99607.81
2022-09-26T13:14:57.308Z,99606.63
2022-09-26T13:19:05.721Z,99607.00
2022-09-26T13:23:26.349Z,99598.81
2022-09-26T13:27:36.225Z,99594.63
2022-09-26T13:32:03.151Z,99591.59
2022-09-26T13:36:08.376Z,99595.47
2022-09-26T13:40:33.163Z,99579.72
2022-09-26T13:44:49.073Z,99584.94
2022-09-26T13:49:15.227Z,99570.13
2022-09-26T13:53:32.378Z,99575.19
2022-09-26T13:57:45.701Z,99567.81
2022-09-26T14:02:23.351Z,99574.38
2022-09-26T14:06:29.094Z,99571.66
2022-09-26T14:10:35.904Z,99565.81
2022-09-26T14:14:42.865Z,99560.13
2022-09-26T14:18:55.863Z,99556.06
2022-09-26T14:22:58.324Z,99554.84
2022-09-26T14:27:11.214Z,99551.81
2022-09-26T14:31:25.040Z,99548.75
2022-09-26T14:35:30.145Z,99550.41
2022-09-26T14:39:42.135Z,99552.09
2022-09-26T14:43:45.102Z,99551.91
2022-09-26T14:47:56.862Z,99549.13
2022-09-26T14:52:01.488Z,99544.09
2022-09-26T14:56:14.503Z,99540.63
2022-09-26T15:00:42.710Z,99537.28
2022-09-26T15:04:59.213Z,99545.03
2022-09-26T15:09:09.239Z,99537.50
2022-09-26T15:13:22.773Z,99537.75
2022-09-26T15:17:31.203Z,99512.00
2022-09-26T15:21:51.770Z,99514.00
2022-09-26T15:25:57.501Z,99492.69
2022-09-26T15:30:07.155Z,99486.59
2022-09-26T15:34:19.376Z,99461.06
2022-09-26T15:38:23.880Z,99443.88
2022-09-26T15:42:49.079Z,99448.91
2022-09-26T15:46:51.499Z,99445.31
2022-09-26T15:51:28.925Z,99440.91
2022-09-26T15:55:34.223Z,99425.75
2022-09-26T15:59:41.636Z,99422.44
2022-09-26T16:03:52.605Z,99413.25
2022-09-26T16:07:55.186Z,99424.97
2022-09-26T16:12:00.579Z,99410.94
2022-09-26T16:16:07.874Z,99408.59
2022-09-26T16:20:09.557Z,99417.78
2022-09-26T16:24:34.336Z,99422.09
2022-09-26T16:28:42.558Z,99403.91
2022-09-26T16:32:44.493Z,99410.16
2022-09-26T16:36:46.262Z,99406.53
2022-09-26T16:40:58.480Z,99397.44
2022-09-26T16:45:05.522Z,99389.91
2022-09-26T16:49:28.792Z,99382.88
2022-09-26T16:53:31.041Z,99384.50
2022-09-26T16:57:37.102Z,99389.16
2022-09-26T17:01:53.936Z,99390.16
2022-09-26T17:05:57.556Z,99391.72
2022-09-26T17:09:59.231Z,99394.25
2022-09-26T17:14:01.102Z,99382.09
2022-09-26T17:18:06.095Z,99386.06
2022-09-26T17:22:15.939Z,99390.75
2022-09-26T17:26:21.818Z,99384.53
2022-09-26T17:30:23.718Z,99392.94
2022-09-26T17:34:28.322Z,99398.56
2022-09-26T17:38:30.288Z,99407.66
2022-09-26T17:42:32.108Z,99413.13
2022-09-26T17:46:37.435Z,99408.22
2022-09-26T17:50:39.895Z,99404.53
2022-09-26T17:54:42.570Z,99411.94
2022-09-26T17:58:45.515Z,99395.75
2022-09-26T18:02:53.141Z,99401.34
2022-09-26T18:06:58.657Z,99400.50
2022-09-26T18:11:03.905Z,99403.72
2022-09-26T18:15:06.053Z,99399.78
2022-09-26T18:19:11.685Z,99412.84
2022-09-26T18:23:20.978Z,99402.25
2022-09-26T18:27:23.228Z,99410.31
2022-09-26T18:31:30.743Z,99438.72
2022-09-26T18:35:32.642Z,99435.31
2022-09-26T18:39:34.778Z,99427.59
2022-09-26T18:43:42.271Z,99420.69
2022-09-26T18:47:45.108Z,99415.94
2022-09-26T18:51:47.229Z,99446.81
2022-09-26T18:56:07.910Z,99488.84
2022-09-26T19:00:10.651Z,99489.28
2022-09-26T19:04:17.811Z,99479.72
2022-09-26T19:08:35.537Z,99476.25
2022-09-26T19:12:39.554Z,99465.38
2022-09-26T19:16:43.312Z,99440.03
2022-09-26T19:20:45.139Z,99412.66
2022-09-26T19:24:54.107Z,99403.72
2022-09-26T19:28:58.165Z,99401.28
2022-09-26T19:33:00.146Z,99412.66
2022-09-26T19:37:03.188Z,99428.25
2022-09-26T19:41:05.777Z,99433.53
2022-09-26T19:45:09.744Z,99447.91
2022-09-26T19:49:17.905Z,99459.75
2022-09-26T19:53:22.519Z,99454.34
2022-09-26T19:57:24.671Z,99454.59
2022-09-26T20:01:27.407Z,99459.28
2022-09-26T20:05:29.557Z,99465.06
2022-09-26T20:09:31.432Z,99465.56
2022-09-26T20:13:53.774Z,99466.53
2022-09-26T20:17:58.383Z,99464.41
2022-09-26T20:22:02.514Z,99464.97
2022-09-26T20:26:04.309Z,99465.09
2022-09-26T20:30:25.787Z,99470.88
2022-09-26T20:34:28.253Z,99468.00
2022-09-26T20:38:33.673Z,99453.19
2022-09-26T20:42:38.299Z,99447.97
2022-09-26T20:46:48.527Z,99451.66
2022-09-26T20:50:51.110Z,99455.72
2022-09-26T20:54:55.198Z,99451.91
2022-09-26T20:58:57.100Z,99449.66
2022-09-26T21:02:58.996Z,99455.91
2022-09-26T21:07:00.810Z,99441.66
2022-09-26T21:11:02.908Z,99433.66
2022-09-26T21:15:04.785Z,99437.03
2022-09-26T21:19:09.407Z,99430.09
2022-09-26T21:23:11.162Z,99428.66
2022-09-26T21:27:13.349Z,99424.47
2022-09-26T21:31:22.293Z,99427.34
2022-09-26T21:35:30.715Z,99416.94
2022-09-26T21:39:32.526Z,99416.34
2022-09-26T21:43:38.173Z,99414.31
2022-09-26T21:47:40.354Z,99411.34
2022-09-26T21:51:44.374Z,99425.41
2022-09-26T21:55:52.833Z,99424.22
2022-09-26T21:59:55.788Z,99421.94
2022-09-26T22:03:58.459Z,99423.47
2022-09-26T22:08:00.552Z,99420.38
2022-09-26T22:12:02.430Z,99426.47
2022-09-26T22:16:09.093Z,99414.53
2022-09-26T22:20:11.659Z,99412.16
2022-09-26T22:24:13.619Z,99411.09
2022-09-26T22:28:15.276Z,99404.75
2022-09-26T22:32:17.121Z,99409.78
2022-09-26T22:36:18.909Z,99419.81
2022-09-26T22:40:20.754Z,99417.78
2022-09-26T22:44:22.541Z,99409.19
2022-09-26T22:48:24.478Z,99397.72
2022-09-26T22:52:26.065Z,99387.09
2022-09-26T22:56:27.865Z,99385.44
2022-09-26T23:00:29.604Z,99397.47
2022-09-26T23:04:46.820Z,99401.56
2022-09-26T23:08:49.073Z,99392.59
2022-09-26T23:12:51.145Z,99386.25
2022-09-26T23:16:52.813Z,99379.56
2022-09-26T23:20:54.644Z,99381.72
2022-09-26T23:24:56.494Z,99380.78
2022-09-26T23:28:59.292Z,99383.63
2022-09-26T23:33:01.065Z,99382.81
2022-09-26T23:37:02.930Z,99383.16
2022-09-26T23:41:06.663Z,99375.50
2022-09-26T23:45:08.912Z,99365.59
2022-09-26T23:49:10.707Z,99371.34
2022-09-26T23:53:13.774Z,99357.34
2022-09-26T23:57:15.435Z,99363.69
